sensor_id;sensor_type;location;lat;lon;timestamp;P1;durP1;ratioP1;P2;durP2;ratioP2
2546;SDS011;1283;47.982;7.834;2023-05-27T00:01:29;18.10;;;4.80;;
2546;SDS011;1283;47.982;7.834;2023-05-27T00:03:56;23.88;;;5.32;;
2546;SDS011;1283;47.982;7.834;2023-05-27T00:06:22;16.55;;;5.03;;
2546;SDS011;1283;47.982;7.834;2023-05-27T00:08:49;19.73;;;5.43;;
2546;SDS011;1283;47.982;7.834;2023-05-27T00:11:16;14.88;;;5.32;;
2546;SDS011;1283;47.982;7.834;2023-05-27T00:13:43;21.70;;;5.45;;
2546;SDS011;1283;47.982;7.834;2023-05-27T00:16:10;18.17;;;5.30;;
2546;SDS011;1283;47.982;7.834;2023-05-27T00:18:37;25.20;;;6.18;;
2546;SDS011;1283;47.982;7.834;2023-05-27T00:21:03;19.05;;;5.47;;
2546;SDS011;1283;47.982;7.834;2023-05-27T00:23:30;20.92;;;5.18;;
2546;SDS011;1283;47.982;7.834;2023-05-27T00:25:56;18.70;;;6.47;;
2546;SDS011;1283;47.982;7.834;2023-05-27T00:28:24;20.90;;;5.50;;
2546;SDS011;1283;47.982;7.834;2023-05-27T00:30:54;22.48;;;5.90;;
2546;SDS011;1283;47.982;7.834;2023-05-27T00:33:20;15.77;;;5.35;;
2546;SDS011;1283;47.982;7.834;2023-05-27T00:35:47;17.75;;;5.53;;
2546;SDS011;1283;47.982;7.834;2023-05-27T00:38:13;14.63;;;5.35;;
2546;SDS011;1283;47.982;7.834;2023-05-27T00:40:41;15.75;;;5.32;;
2546;SDS011;1283;47.982;7.834;2023-05-27T00:43:08;22.60;;;6.25;;
2546;SDS011;1283;47.982;7.834;2023-05-27T00:45:36;14.13;;;5.32;;
2546;SDS011;1283;47.982;7.834;2023-05-27T00:48:02;18.67;;;6.10;;
2546;SDS011;1283;47.982;7.834;2023-05-27T00:50:30;15.85;;;5.25;;
2546;SDS011;1283;47.982;7.834;2023-05-27T00:52:56;25.92;;;5.97;;
2546;SDS011;1283;47.982;7.834;2023-05-27T00:55:24;17.27;;;5.68;;
2546;SDS011;1283;47.982;7.834;2023-05-27T00:57:50;18.80;;;5.47;;
2546;SDS011;1283;47.982;7.834;2023-05-27T01:00:19;16.73;;;5.68;;
2546;SDS011;1283;47.982;7.834;2023-05-27T01:02:47;23.23;;;6.15;;
2546;SDS011;1283;47.982;7.834;2023-05-27T01:05:14;18.88;;;7.22;;
2546;SDS011;1283;47.982;7.834;2023-05-27T01:07:44;21.02;;;5.80;;
2546;SDS011;1283;47.982;7.834;2023-05-27T01:10:21;13.70;;;5.60;;
2546;SDS011;1283;47.982;7.834;2023-05-27T01:12:51;23.52;;;5.68;;
2546;SDS011;1283;47.982;7.834;2023-05-27T01:15:23;27.52;;;5.68;;
2546;SDS011;1283;47.982;7.834;2023-05-27T01:17:53;19.23;;;5.40;;
2546;SDS011;1283;47.982;7.834;2023-05-27T01:20:22;15.70;;;5.38;;
2546;SDS011;1283;47.982;7.834;2023-05-27T01:22:50;19.08;;;5.82;;
2546;SDS011;1283;47.982;7.834;2023-05-27T01:25:17;28.75;;;6.25;;
2546;SDS011;1283;47.982;7.834;2023-05-27T01:27:44;22.00;;;5.80;;
2546;SDS011;1283;47.982;7.834;2023-05-27T01:30:11;22.60;;;6.15;;
2546;SDS011;1283;47.982;7.834;2023-05-27T01:32:39;17.60;;;5.78;;
2546;SDS011;1283;47.982;7.834;2023-05-27T01:35:09;21.35;;;5.75;;
2546;SDS011;1283;47.982;7.834;2023-05-27T01:37:42;16.85;;;5.15;;
2546;SDS011;1283;47.982;7.834;2023-05-27T01:40:11;20.38;;;5.93;;
2546;SDS011;1283;47.982;7.834;2023-05-27T01:42:39;18.15;;;5.47;;
2546;SDS011;1283;47.982;7.834;2023-05-27T01:45:07;17.92;;;6.10;;
2546;SDS011;1283;47.982;7.834;2023-05-27T01:47:34;16.70;;;5.97;;
2546;SDS011;1283;47.982;7.834;2023-05-27T01:50:01;16.17;;;6.78;;
2546;SDS011;1283;47.982;7.834;2023-05-27T01:52:28;23.80;;;6.43;;
2546;SDS011;1283;47.982;7.834;2023-05-27T01:54:54;22.98;;;6.28;;
2546;SDS011;1283;47.982;7.834;2023-05-27T01:57:23;16.98;;;6.10;;
2546;SDS011;1283;47.982;7.834;2023-05-27T01:59:50;21.55;;;6.22;;
2546;SDS011;1283;47.982;7.834;2023-05-27T02:02:17;17.80;;;5.60;;
2546;SDS011;1283;47.982;7.834;2023-05-27T02:04:43;15.30;;;6.28;;
2546;SDS011;1283;47.982;7.834;2023-05-27T02:07:10;16.92;;;6.13;;
2546;SDS011;1283;47.982;7.834;2023-05-27T02:09:36;26.02;;;7.22;;
2546;SDS011;1283;47.982;7.834;2023-05-27T02:12:03;16.83;;;5.50;;
2546;SDS011;1283;47.982;7.834;2023-05-27T02:14:31;13.30;;;5.20;;
2546;SDS011;1283;47.982;7.834;2023-05-27T02:16:59;22.42;;;6.35;;
2546;SDS011;1283;47.982;7.834;2023-05-27T02:19:28;20.13;;;6.10;;
2546;SDS011;1283;47.982;7.834;2023-05-27T02:21:55;24.52;;;5.70;;
2546;SDS011;1283;47.982;7.834;2023-05-27T02:24:21;26.75;;;6.60;;
2546;SDS011;1283;47.982;7.834;2023-05-27T02:26:48;21.23;;;5.68;;
2546;SDS011;1283;47.982;7.834;2023-05-27T02:29:14;29.95;;;6.45;;
2546;SDS011;1283;47.982;7.834;2023-05-27T02:31:42;19.10;;;6.53;;
2546;SDS011;1283;47.982;7.834;2023-05-27T02:34:08;20.48;;;5.53;;
2546;SDS011;1283;47.982;7.834;2023-05-27T02:36:35;16.35;;;6.13;;
2546;SDS011;1283;47.982;7.834;2023-05-27T02:39:01;14.38;;;5.93;;
2546;SDS011;1283;47.982;7.834;2023-05-27T02:41:28;22.40;;;6.10;;
2546;SDS011;1283;47.982;7.834;2023-05-27T02:43:54;25.25;;;6.82;;
2546;SDS011;1283;47.982;7.834;2023-05-27T02:46:21;18.77;;;6.63;;
2546;SDS011;1283;47.982;7.834;2023-05-27T02:48:49;19.92;;;6.50;;
2546;SDS011;1283;47.982;7.834;2023-05-27T02:51:15;21.30;;;6.20;;
2546;SDS011;1283;47.982;7.834;2023-05-27T02:53:41;22.30;;;6.60;;
2546;SDS011;1283;47.982;7.834;2023-05-27T02:56:08;23.23;;;7.63;;
2546;SDS011;1283;47.982;7.834;2023-05-27T02:58:34;21.85;;;6.90;;
2546;SDS011;1283;47.982;7.834;2023-05-27T03:01:01;22.90;;;6.72;;
2546;SDS011;1283;47.982;7.834;2023-05-27T03:03:27;19.77;;;6.90;;
2546;SDS011;1283;47.982;7.834;2023-05-27T03:05:55;16.52;;;6.50;;
2546;SDS011;1283;47.982;7.834;2023-05-27T03:08:22;13.77;;;6.78;;
2546;SDS011;1283;47.982;7.834;2023-05-27T03:10:48;18.17;;;6.85;;
2546;SDS011;1283;47.982;7.834;2023-05-27T03:13:15;15.82;;;6.47;;
2546;SDS011;1283;47.982;7.834;2023-05-27T03:15:42;19.50;;;6.32;;
2546;SDS011;1283;47.982;7.834;2023-05-27T03:18:08;20.90;;;7.25;;
2546;SDS011;1283;47.982;7.834;2023-05-27T03:20:35;21.48;;;7.20;;
2546;SDS011;1283;47.982;7.834;2023-05-27T03:23:02;33.53;;;7.60;;
2546;SDS011;1283;47.982;7.834;2023-05-27T03:25:29;25.63;;;6.25;;
2546;SDS011;1283;47.982;7.834;2023-05-27T03:27:55;18.25;;;6.50;;
2546;SDS011;1283;47.982;7.834;2023-05-27T03:30:22;16.90;;;6.25;;
2546;SDS011;1283;47.982;7.834;2023-05-27T03:32:48;18.67;;;6.78;;
2546;SDS011;1283;47.982;7.834;2023-05-27T03:35:15;22.35;;;7.53;;
2546;SDS011;1283;47.982;7.834;2023-05-27T03:37:42;21.13;;;6.70;;
2546;SDS011;1283;47.982;7.834;2023-05-27T03:40:10;16.88;;;6.70;;
2546;SDS011;1283;47.982;7.834;2023-05-27T03:42:37;17.42;;;6.72;;
2546;SDS011;1283;47.982;7.834;2023-05-27T03:45:04;18.40;;;7.40;;
2546;SDS011;1283;47.982;7.834;2023-05-27T03:47:32;23.00;;;6.40;;
2546;SDS011;1283;47.982;7.834;2023-05-27T03:49:59;19.13;;;7.95;;
2546;SDS011;1283;47.982;7.834;2023-05-27T03:52:26;19.23;;;6.70;;
2546;SDS011;1283;47.982;7.834;2023-05-27T03:54:52;17.30;;;6.30;;
2546;SDS011;1283;47.982;7.834;2023-05-27T03:57:20;15.85;;;6.47;;
2546;SDS011;1283;47.982;7.834;2023-05-27T03:59:47;20.42;;;6.88;;
2546;SDS011;1283;47.982;7.834;2023-05-27T04:02:13;16.45;;;6.18;;
2546;SDS011;1283;47.982;7.834;2023-05-27T04:04:40;18.05;;;6.93;;
2546;SDS011;1283;47.982;7.834;2023-05-27T04:07:06;17.92;;;6.63;;
2546;SDS011;1283;47.982;7.834;2023-05-27T04:09:33;16.33;;;6.57;;
2546;SDS011;1283;47.982;7.834;2023-05-27T04:11:59;17.40;;;6.28;;
2546;SDS011;1283;47.982;7.834;2023-05-27T04:14:27;19.08;;;6.20;;
2546;SDS011;1283;47.982;7.834;2023-05-27T04:16:54;23.17;;;7.30;;
2546;SDS011;1283;47.982;7.834;2023-05-27T04:19:20;22.25;;;6.40;;
2546;SDS011;1283;47.982;7.834;2023-05-27T04:21:47;20.33;;;6.60;;
2546;SDS011;1283;47.982;7.834;2023-05-27T04:24:13;18.55;;;5.72;;
2546;SDS011;1283;47.982;7.834;2023-05-27T04:26:40;14.23;;;5.93;;
2546;SDS011;1283;47.982;7.834;2023-05-27T04:29:07;16.48;;;5.93;;
2546;SDS011;1283;47.982;7.834;2023-05-27T04:31:38;20.88;;;6.60;;
2546;SDS011;1283;47.982;7.834;2023-05-27T04:34:04;16.45;;;6.90;;
2546;SDS011;1283;47.982;7.834;2023-05-27T04:36:31;16.48;;;5.85;;
2546;SDS011;1283;47.982;7.834;2023-05-27T04:38:59;15.52;;;5.03;;
2546;SDS011;1283;47.982;7.834;2023-05-27T04:41:26;16.17;;;5.60;;
2546;SDS011;1283;47.982;7.834;2023-05-27T04:43:53;13.73;;;5.53;;
2546;SDS011;1283;47.982;7.834;2023-05-27T04:46:19;15.52;;;6.00;;
2546;SDS011;1283;47.982;7.834;2023-05-27T04:48:48;11.57;;;5.43;;
2546;SDS011;1283;47.982;7.834;2023-05-27T04:51:16;19.25;;;5.25;;
2546;SDS011;1283;47.982;7.834;2023-05-27T04:53:42;13.90;;;5.38;;
2546;SDS011;1283;47.982;7.834;2023-05-27T04:56:09;23.00;;;5.65;;
2546;SDS011;1283;47.982;7.834;2023-05-27T04:58:39;12.60;;;5.00;;
2546;SDS011;1283;47.982;7.834;2023-05-27T05:01:07;20.85;;;5.72;;
2546;SDS011;1283;47.982;7.834;2023-05-27T05:03:41;10.55;;;4.80;;
2546;SDS011;1283;47.982;7.834;2023-05-27T05:06:18;9.60;;;4.88;;
2546;SDS011;1283;47.982;7.834;2023-05-27T05:11:13;13.82;;;5.50;;
2546;SDS011;1283;47.982;7.834;2023-05-27T05:13:40;13.57;;;5.10;;
2546;SDS011;1283;47.982;7.834;2023-05-27T05:16:06;14.63;;;5.25;;
2546;SDS011;1283;47.982;7.834;2023-05-27T05:18:33;12.68;;;4.50;;
2546;SDS011;1283;47.982;7.834;2023-05-27T05:20:59;11.70;;;4.60;;
2546;SDS011;1283;47.982;7.834;2023-05-27T05:23:27;13.80;;;4.43;;
2546;SDS011;1283;47.982;7.834;2023-05-27T05:25:53;17.63;;;5.20;;
2546;SDS011;1283;47.982;7.834;2023-05-27T05:28:23;15.32;;;5.00;;
2546;SDS011;1283;47.982;7.834;2023-05-27T05:30:50;18.13;;;5.30;;
2546;SDS011;1283;47.982;7.834;2023-05-27T05:33:16;11.85;;;4.53;;
2546;SDS011;1283;47.982;7.834;2023-05-27T05:35:43;13.98;;;4.95;;
2546;SDS011;1283;47.982;7.834;2023-05-27T05:38:09;13.00;;;4.95;;
2546;SDS011;1283;47.982;7.834;2023-05-27T05:40:37;12.35;;;4.55;;
2546;SDS011;1283;47.982;7.834;2023-05-27T05:43:03;12.98;;;4.53;;
2546;SDS011;1283;47.982;7.834;2023-05-27T05:45:30;22.60;;;5.55;;
2546;SDS011;1283;47.982;7.834;2023-05-27T05:47:56;15.98;;;5.45;;
2546;SDS011;1283;47.982;7.834;2023-05-27T05:50:23;16.00;;;5.30;;
2546;SDS011;1283;47.982;7.834;2023-05-27T05:52:50;15.20;;;4.60;;
2546;SDS011;1283;47.982;7.834;2023-05-27T05:55:16;13.20;;;4.63;;
2546;SDS011;1283;47.982;7.834;2023-05-27T05:57:44;17.10;;;5.03;;
2546;SDS011;1283;47.982;7.834;2023-05-27T06:00:11;14.05;;;4.82;;
2546;SDS011;1283;47.982;7.834;2023-05-27T06:02:39;16.13;;;4.57;;
2546;SDS011;1283;47.982;7.834;2023-05-27T06:05:05;15.43;;;4.97;;
2546;SDS011;1283;47.982;7.834;2023-05-27T06:07:32;17.45;;;4.85;;
2546;SDS011;1283;47.982;7.834;2023-05-27T06:09:59;17.40;;;5.03;;
2546;SDS011;1283;47.982;7.834;2023-05-27T06:12:25;12.30;;;4.47;;
2546;SDS011;1283;47.982;7.834;2023-05-27T06:14:53;18.48;;;5.47;;
2546;SDS011;1283;47.982;7.834;2023-05-27T06:17:20;15.82;;;4.57;;
2546;SDS011;1283;47.982;7.834;2023-05-27T06:19:46;14.02;;;4.78;;
2546;SDS011;1283;47.982;7.834;2023-05-27T06:22:12;13.38;;;4.43;;
2546;SDS011;1283;47.982;7.834;2023-05-27T06:24:40;16.85;;;4.47;;
2546;SDS011;1283;47.982;7.834;2023-05-27T06:27:06;15.20;;;4.78;;
2546;SDS011;1283;47.982;7.834;2023-05-27T06:29:32;15.18;;;4.47;;
2546;SDS011;1283;47.982;7.834;2023-05-27T06:32:01;12.32;;;4.68;;
2546;SDS011;1283;47.982;7.834;2023-05-27T06:34:27;13.75;;;3.83;;
2546;SDS011;1283;47.982;7.834;2023-05-27T06:36:54;14.10;;;4.95;;
2546;SDS011;1283;47.982;7.834;2023-05-27T06:39:20;15.60;;;4.65;;
2546;SDS011;1283;47.982;7.834;2023-05-27T06:41:47;13.25;;;4.75;;
2546;SDS011;1283;47.982;7.834;2023-05-27T06:44:14;18.73;;;4.90;;
2546;SDS011;1283;47.982;7.834;2023-05-27T06:46:40;11.00;;;4.57;;
2546;SDS011;1283;47.982;7.834;2023-05-27T06:49:08;13.80;;;4.55;;
2546;SDS011;1283;47.982;7.834;2023-05-27T06:51:35;12.43;;;4.22;;
2546;SDS011;1283;47.982;7.834;2023-05-27T06:54:02;16.58;;;4.93;;
2546;SDS011;1283;47.982;7.834;2023-05-27T06:56:28;12.75;;;4.57;;
2546;SDS011;1283;47.982;7.834;2023-05-27T06:58:55;15.88;;;5.40;;
2546;SDS011;1283;47.982;7.834;2023-05-27T07:01:21;19.30;;;4.72;;
2546;SDS011;1283;47.982;7.834;2023-05-27T07:03:48;19.38;;;4.07;;
2546;SDS011;1283;47.982;7.834;2023-05-27T07:06:16;13.98;;;4.97;;
2546;SDS011;1283;47.982;7.834;2023-05-27T07:08:43;17.10;;;4.82;;
2546;SDS011;1283;47.982;7.834;2023-05-27T07:11:09;11.75;;;4.70;;
2546;SDS011;1283;47.982;7.834;2023-05-27T07:13:35;14.40;;;4.65;;
2546;SDS011;1283;47.982;7.834;2023-05-27T07:16:02;18.13;;;4.30;;
2546;SDS011;1283;47.982;7.834;2023-05-27T07:18:28;18.05;;;5.03;;
2546;SDS011;1283;47.982;7.834;2023-05-27T07:20:55;12.75;;;4.43;;
2546;SDS011;1283;47.982;7.834;2023-05-27T07:23:23;15.88;;;4.38;;
2546;SDS011;1283;47.982;7.834;2023-05-27T07:25:50;14.70;;;4.85;;
2546;SDS011;1283;47.982;7.834;2023-05-27T07:28:16;21.45;;;5.03;;
2546;SDS011;1283;47.982;7.834;2023-05-27T07:30:42;16.42;;;4.88;;
2546;SDS011;1283;47.982;7.834;2023-05-27T07:33:09;13.32;;;4.30;;
2546;SDS011;1283;47.982;7.834;2023-05-27T07:35:35;15.85;;;4.18;;
2546;SDS011;1283;47.982;7.834;2023-05-27T07:38:02;19.23;;;5.18;;
2546;SDS011;1283;47.982;7.834;2023-05-27T07:40:30;15.10;;;4.35;;
2546;SDS011;1283;47.982;7.834;2023-05-27T07:42:56;13.48;;;4.00;;
2546;SDS011;1283;47.982;7.834;2023-05-27T07:45:23;14.52;;;4.97;;
2546;SDS011;1283;47.982;7.834;2023-05-27T07:47:49;19.98;;;5.13;;
2546;SDS011;1283;47.982;7.834;2023-05-27T07:50:16;13.95;;;4.97;;
2546;SDS011;1283;47.982;7.834;2023-05-27T07:52:42;12.23;;;4.43;;
2546;SDS011;1283;47.982;7.834;2023-05-27T07:55:09;19.50;;;4.93;;
2546;SDS011;1283;47.982;7.834;2023-05-27T07:57:37;17.55;;;4.82;;
2546;SDS011;1283;47.982;7.834;2023-05-27T08:00:04;22.13;;;4.78;;
2546;SDS011;1283;47.982;7.834;2023-05-27T08:02:33;19.25;;;5.65;;
2546;SDS011;1283;47.982;7.834;2023-05-27T08:04:59;14.05;;;4.95;;
2546;SDS011;1283;47.982;7.834;2023-05-27T08:07:25;12.93;;;5.10;;
2546;SDS011;1283;47.982;7.834;2023-05-27T08:09:52;11.98;;;4.85;;
2546;SDS011;1283;47.982;7.834;2023-05-27T08:12:18;17.42;;;4.50;;
2546;SDS011;1283;47.982;7.834;2023-05-27T08:14:46;16.05;;;5.15;;
2546;SDS011;1283;47.982;7.834;2023-05-27T08:17:13;20.38;;;5.30;;
2546;SDS011;1283;47.982;7.834;2023-05-27T08:19:40;15.95;;;4.57;;
2546;SDS011;1283;47.982;7.834;2023-05-27T08:22:06;22.50;;;5.35;;
2546;SDS011;1283;47.982;7.834;2023-05-27T08:24:35;14.32;;;4.35;;
2546;SDS011;1283;47.982;7.834;2023-05-27T08:27:01;12.80;;;4.35;;
2546;SDS011;1283;47.982;7.834;2023-05-27T08:29:30;17.15;;;4.60;;
2546;SDS011;1283;47.982;7.834;2023-05-27T08:31:59;17.52;;;4.90;;
2546;SDS011;1283;47.982;7.834;2023-05-27T08:34:25;18.20;;;5.40;;
2546;SDS011;1283;47.982;7.834;2023-05-27T08:36:52;15.68;;;4.45;;
2546;SDS011;1283;47.982;7.834;2023-05-27T08:39:18;14.40;;;5.13;;
2546;SDS011;1283;47.982;7.834;2023-05-27T08:41:45;15.25;;;5.15;;
2546;SDS011;1283;47.982;7.834;2023-05-27T08:44:11;17.63;;;4.85;;
2546;SDS011;1283;47.982;7.834;2023-05-27T08:46:38;11.75;;;4.22;;
2546;SDS011;1283;47.982;7.834;2023-05-27T08:49:07;13.75;;;4.82;;
2546;SDS011;1283;47.982;7.834;2023-05-27T08:51:35;17.15;;;4.60;;
2546;SDS011;1283;47.982;7.834;2023-05-27T08:54:03;10.60;;;4.78;;
2546;SDS011;1283;47.982;7.834;2023-05-27T08:56:29;15.93;;;4.63;;
2546;SDS011;1283;47.982;7.834;2023-05-27T08:58:57;14.90;;;4.57;;
2546;SDS011;1283;47.982;7.834;2023-05-27T09:01:25;14.73;;;5.13;;
2546;SDS011;1283;47.982;7.834;2023-05-27T09:03:52;16.77;;;5.07;;
2546;SDS011;1283;47.982;7.834;2023-05-27T09:06:21;10.52;;;4.50;;
2546;SDS011;1283;47.982;7.834;2023-05-27T09:08:48;16.48;;;4.70;;
2546;SDS011;1283;47.982;7.834;2023-05-27T09:11:24;12.50;;;4.80;;
2546;SDS011;1283;47.982;7.834;2023-05-27T09:13:53;16.95;;;5.22;;
2546;SDS011;1283;47.982;7.834;2023-05-27T09:16:20;12.82;;;4.88;;
2546;SDS011;1283;47.982;7.834;2023-05-27T09:18:46;15.48;;;4.85;;
2546;SDS011;1283;47.982;7.834;2023-05-27T09:21:13;16.80;;;5.28;;
2546;SDS011;1283;47.982;7.834;2023-05-27T09:23:41;18.73;;;5.28;;
2546;SDS011;1283;47.982;7.834;2023-05-27T09:26:07;19.10;;;5.30;;
2546;SDS011;1283;47.982;7.834;2023-05-27T09:28:35;9.52;;;4.68;;
2546;SDS011;1283;47.982;7.834;2023-05-27T09:31:03;16.27;;;4.55;;
2546;SDS011;1283;47.982;7.834;2023-05-27T09:33:30;17.70;;;4.30;;
2546;SDS011;1283;47.982;7.834;2023-05-27T09:35:58;18.48;;;4.85;;
2546;SDS011;1283;47.982;7.834;2023-05-27T09:38:27;15.98;;;5.20;;
2546;SDS011;1283;47.982;7.834;2023-05-27T09:40:55;16.10;;;4.82;;
2546;SDS011;1283;47.982;7.834;2023-05-27T09:43:23;19.08;;;4.97;;
2546;SDS011;1283;47.982;7.834;2023-05-27T09:45:50;13.98;;;4.53;;
2546;SDS011;1283;47.982;7.834;2023-05-27T09:48:18;10.93;;;4.68;;
2546;SDS011;1283;47.982;7.834;2023-05-27T09:50:45;19.08;;;4.82;;
2546;SDS011;1283;47.982;7.834;2023-05-27T09:53:12;19.23;;;5.20;;
2546;SDS011;1283;47.982;7.834;2023-05-27T09:55:39;18.23;;;4.90;;
2546;SDS011;1283;47.982;7.834;2023-05-27T09:58:08;15.57;;;4.72;;
2546;SDS011;1283;47.982;7.834;2023-05-27T10:00:35;15.82;;;5.15;;
2546;SDS011;1283;47.982;7.834;2023-05-27T10:03:03;12.48;;;4.43;;
2546;SDS011;1283;47.982;7.834;2023-05-27T10:05:31;22.05;;;4.78;;
2546;SDS011;1283;47.982;7.834;2023-05-27T10:07:58;16.83;;;4.85;;
2546;SDS011;1283;47.982;7.834;2023-05-27T10:10:24;15.85;;;5.45;;
2546;SDS011;1283;47.982;7.834;2023-05-27T10:12:53;14.05;;;4.68;;
2546;SDS011;1283;47.982;7.834;2023-05-27T10:15:22;24.80;;;6.38;;
2546;SDS011;1283;47.982;7.834;2023-05-27T10:17:51;18.05;;;4.53;;
2546;SDS011;1283;47.982;7.834;2023-05-27T10:20:26;12.82;;;4.80;;
2546;SDS011;1283;47.982;7.834;2023-05-27T10:22:53;14.32;;;4.55;;
2546;SDS011;1283;47.982;7.834;2023-05-27T10:25:21;28.15;;;5.63;;
2546;SDS011;1283;47.982;7.834;2023-05-27T10:27:48;13.70;;;4.55;;
2546;SDS011;1283;47.982;7.834;2023-05-27T10:30:15;14.10;;;4.53;;
2546;SDS011;1283;47.982;7.834;2023-05-27T10:32:44;18.10;;;5.05;;
2546;SDS011;1283;47.982;7.834;2023-05-27T10:35:11;12.70;;;4.40;;
2546;SDS011;1283;47.982;7.834;2023-05-27T10:37:37;15.82;;;4.95;;
2546;SDS011;1283;47.982;7.834;2023-05-27T10:40:04;15.90;;;4.43;;
2546;SDS011;1283;47.982;7.834;2023-05-27T10:42:32;23.35;;;4.90;;
2546;SDS011;1283;47.982;7.834;2023-05-27T10:45:03;16.70;;;4.68;;
2546;SDS011;1283;47.982;7.834;2023-05-27T10:47:33;23.70;;;5.07;;
2546;SDS011;1283;47.982;7.834;2023-05-27T10:50:10;10.13;;;4.15;;
2546;SDS011;1283;47.982;7.834;2023-05-27T10:52:38;10.95;;;4.80;;
2546;SDS011;1283;47.982;7.834;2023-05-27T10:55:05;17.00;;;5.00;;
2546;SDS011;1283;47.982;7.834;2023-05-27T10:57:32;14.50;;;5.07;;
2546;SDS011;1283;47.982;7.834;2023-05-27T11:00:00;17.25;;;5.15;;
2546;SDS011;1283;47.982;7.834;2023-05-27T11:02:29;19.08;;;5.53;;
2546;SDS011;1283;47.982;7.834;2023-05-27T11:04:57;12.00;;;4.90;;
2546;SDS011;1283;47.982;7.834;2023-05-27T11:07:24;17.20;;;5.10;;
2546;SDS011;1283;47.982;7.834;2023-05-27T11:09:52;14.18;;;4.80;;
2546;SDS011;1283;47.982;7.834;2023-05-27T11:12:19;10.80;;;5.25;;
2546;SDS011;1283;47.982;7.834;2023-05-27T11:14:47;13.00;;;4.95;;
2546;SDS011;1283;47.982;7.834;2023-05-27T11:17:15;13.95;;;4.22;;
2546;SDS011;1283;47.982;7.834;2023-05-27T11:19:42;20.48;;;5.30;;
2546;SDS011;1283;47.982;7.834;2023-05-27T11:22:09;16.88;;;4.68;;
2546;SDS011;1283;47.982;7.834;2023-05-27T11:24:38;19.55;;;4.68;;
2546;SDS011;1283;47.982;7.834;2023-05-27T11:27:07;16.88;;;5.05;;
2546;SDS011;1283;47.982;7.834;2023-05-27T11:29:35;24.15;;;5.75;;
2546;SDS011;1283;47.982;7.834;2023-05-27T11:32:02;16.58;;;5.07;;
2546;SDS011;1283;47.982;7.834;2023-05-27T11:34:29;18.75;;;5.30;;
2546;SDS011;1283;47.982;7.834;2023-05-27T11:36:55;16.95;;;5.03;;
2546;SDS011;1283;47.982;7.834;2023-05-27T11:39:29;19.63;;;5.15;;
2546;SDS011;1283;47.982;7.834;2023-05-27T11:41:56;16.45;;;4.18;;
2546;SDS011;1283;47.982;7.834;2023-05-27T11:44:24;16.70;;;4.70;;
2546;SDS011;1283;47.982;7.834;2023-05-27T11:46:51;14.85;;;4.63;;
2546;SDS011;1283;47.982;7.834;2023-05-27T11:49:19;15.43;;;4.68;;
2546;SDS011;1283;47.982;7.834;2023-05-27T11:51:46;14.52;;;4.60;;
2546;SDS011;1283;47.982;7.834;2023-05-27T11:54:17;14.52;;;5.53;;
2546;SDS011;1283;47.982;7.834;2023-05-27T11:56:45;11.98;;;4.93;;
2546;SDS011;1283;47.982;7.834;2023-05-27T11:59:13;13.13;;;5.55;;
2546;SDS011;1283;47.982;7.834;2023-05-27T12:01:39;14.38;;;5.13;;
2546;SDS011;1283;47.982;7.834;2023-05-27T12:04:06;18.73;;;5.38;;
2546;SDS011;1283;47.982;7.834;2023-05-27T12:06:32;16.17;;;5.30;;
2546;SDS011;1283;47.982;7.834;2023-05-27T12:08:59;15.82;;;5.10;;
2546;SDS011;1283;47.982;7.834;2023-05-27T12:11:26;11.57;;;4.35;;
2546;SDS011;1283;47.982;7.834;2023-05-27T12:13:52;14.82;;;4.80;;
2546;SDS011;1283;47.982;7.834;2023-05-27T12:16:21;12.93;;;4.78;;
2546;SDS011;1283;47.982;7.834;2023-05-27T12:18:47;16.02;;;5.00;;
2546;SDS011;1283;47.982;7.834;2023-05-27T12:21:14;12.10;;;4.95;;
2546;SDS011;1283;47.982;7.834;2023-05-27T12:23:40;21.83;;;5.07;;
2546;SDS011;1283;47.982;7.834;2023-05-27T12:26:07;17.17;;;4.95;;
2546;SDS011;1283;47.982;7.834;2023-05-27T12:28:33;12.60;;;5.03;;
2546;SDS011;1283;47.982;7.834;2023-05-27T12:31:00;18.17;;;5.47;;
2546;SDS011;1283;47.982;7.834;2023-05-27T12:33:27;15.18;;;5.30;;
2546;SDS011;1283;47.982;7.834;2023-05-27T12:35:54;13.40;;;4.72;;
2546;SDS011;1283;47.982;7.834;2023-05-27T12:38:20;13.85;;;4.88;;
2546;SDS011;1283;47.982;7.834;2023-05-27T12:40:47;16.15;;;4.72;;
2546;SDS011;1283;47.982;7.834;2023-05-27T12:43:14;14.65;;;5.15;;
2546;SDS011;1283;47.982;7.834;2023-05-27T12:45:40;16.10;;;4.47;;
2546;SDS011;1283;47.982;7.834;2023-05-27T12:48:07;13.13;;;5.13;;
2546;SDS011;1283;47.982;7.834;2023-05-27T12:50:35;14.13;;;5.20;;
2546;SDS011;1283;47.982;7.834;2023-05-27T12:53:02;14.05;;;5.20;;
2546;SDS011;1283;47.982;7.834;2023-05-27T12:55:28;23.67;;;4.85;;
2546;SDS011;1283;47.982;7.834;2023-05-27T12:57:55;16.50;;;4.80;;
2546;SDS011;1283;47.982;7.834;2023-05-27T13:00:22;11.35;;;4.70;;
2546;SDS011;1283;47.982;7.834;2023-05-27T13:02:49;16.88;;;4.40;;
2546;SDS011;1283;47.982;7.834;2023-05-27T13:05:16;26.02;;;4.93;;
2546;SDS011;1283;47.982;7.834;2023-05-27T13:07:53;15.75;;;4.85;;
2546;SDS011;1283;47.982;7.834;2023-05-27T13:10:21;9.25;;;4.63;;
2546;SDS011;1283;47.982;7.834;2023-05-27T13:12:49;16.02;;;4.97;;
2546;SDS011;1283;47.982;7.834;2023-05-27T13:15:15;16.67;;;6.43;;
2546;SDS011;1283;47.982;7.834;2023-05-27T13:17:42;19.75;;;5.80;;
2546;SDS011;1283;47.982;7.834;2023-05-27T13:20:08;13.02;;;4.47;;
2546;SDS011;1283;47.982;7.834;2023-05-27T13:22:36;15.82;;;5.18;;
2546;SDS011;1283;47.982;7.834;2023-05-27T13:25:04;13.38;;;4.93;;
2546;SDS011;1283;47.982;7.834;2023-05-27T13:27:32;14.27;;;4.70;;
2546;SDS011;1283;47.982;7.834;2023-05-27T13:29:58;16.42;;;4.75;;
2546;SDS011;1283;47.982;7.834;2023-05-27T13:32:24;10.73;;;5.07;;
2546;SDS011;1283;47.982;7.834;2023-05-27T13:34:51;10.75;;;4.72;;
2546;SDS011;1283;47.982;7.834;2023-05-27T13:37:20;12.63;;;5.53;;
2546;SDS011;1283;47.982;7.834;2023-05-27T13:39:46;14.77;;;4.85;;
2546;SDS011;1283;47.982;7.834;2023-05-27T13:42:14;15.77;;;5.10;;
2546;SDS011;1283;47.982;7.834;2023-05-27T13:44:40;29.65;;;5.57;;
2546;SDS011;1283;47.982;7.834;2023-05-27T13:47:07;9.68;;;4.75;;
2546;SDS011;1283;47.982;7.834;2023-05-27T13:49:34;11.25;;;4.18;;
2546;SDS011;1283;47.982;7.834;2023-05-27T13:52:01;13.02;;;4.60;;
2546;SDS011;1283;47.982;7.834;2023-05-27T13:54:27;18.42;;;5.82;;
2546;SDS011;1283;47.982;7.834;2023-05-27T13:56:54;18.00;;;5.32;;
2546;SDS011;1283;47.982;7.834;2023-05-27T13:59:22;16.58;;;5.28;;
2546;SDS011;1283;47.982;7.834;2023-05-27T14:01:48;15.23;;;5.03;;
2546;SDS011;1283;47.982;7.834;2023-05-27T14:04:16;15.55;;;5.00;;
2546;SDS011;1283;47.982;7.834;2023-05-27T14:06:42;13.10;;;5.13;;
2546;SDS011;1283;47.982;7.834;2023-05-27T14:09:09;13.43;;;5.20;;
2546;SDS011;1283;47.982;7.834;2023-05-27T14:11:35;12.48;;;5.40;;
2546;SDS011;1283;47.982;7.834;2023-05-27T14:14:02;14.95;;;5.88;;
2546;SDS011;1283;47.982;7.834;2023-05-27T14:16:30;15.07;;;5.10;;
2546;SDS011;1283;47.982;7.834;2023-05-27T14:18:56;11.80;;;5.22;;
2546;SDS011;1283;47.982;7.834;2023-05-27T14:21:23;13.93;;;4.78;;
2546;SDS011;1283;47.982;7.834;2023-05-27T14:23:49;13.05;;;5.10;;
2546;SDS011;1283;47.982;7.834;2023-05-27T14:26:16;11.60;;;4.72;;
2546;SDS011;1283;47.982;7.834;2023-05-27T14:28:42;14.95;;;4.72;;
2546;SDS011;1283;47.982;7.834;2023-05-27T14:31:09;14.98;;;5.30;;
2546;SDS011;1283;47.982;7.834;2023-05-27T14:33:37;11.13;;;4.75;;
2546;SDS011;1283;47.982;7.834;2023-05-27T14:36:03;15.23;;;5.50;;
2546;SDS011;1283;47.982;7.834;2023-05-27T14:38:30;9.70;;;4.72;;
2546;SDS011;1283;47.982;7.834;2023-05-27T14:40:57;17.33;;;6.18;;
2546;SDS011;1283;47.982;7.834;2023-05-27T14:43:23;13.52;;;5.63;;
2546;SDS011;1283;47.982;7.834;2023-05-27T14:45:50;13.02;;;5.50;;
2546;SDS011;1283;47.982;7.834;2023-05-27T14:48:16;19.67;;;5.47;;
2546;SDS011;1283;47.982;7.834;2023-05-27T14:50:44;20.38;;;5.20;;
2546;SDS011;1283;47.982;7.834;2023-05-27T14:53:10;13.75;;;5.22;;
2546;SDS011;1283;47.982;7.834;2023-05-27T14:55:37;13.55;;;5.18;;
2546;SDS011;1283;47.982;7.834;2023-05-27T14:58:03;15.73;;;5.10;;
2546;SDS011;1283;47.982;7.834;2023-05-27T15:00:31;14.15;;;4.55;;
2546;SDS011;1283;47.982;7.834;2023-05-27T15:02:58;12.07;;;5.40;;
2546;SDS011;1283;47.982;7.834;2023-05-27T15:05:24;16.00;;;5.70;;